Kirksville, MO

12:21 PM CDT on May 24, 2015 (GMT -0500)
Kirksville Regional | | Change Station
CLOSE
Current Station
Airport
Location: Kirksville,
Elevation: 965 ft
Nearby Weather Stations

Elev 965 ft 40.10 °N, 92.55 °W | Updated 26 minutes ago

Overcast
Overcast
69 °F
Feels Like 69 °F
N
14
Wind Variable Wind from South

Today
High -- | Low -- °F
--% Chance of Precip.
Yesterday
High -- | Low -- °F
Precip. -- in
5:47 AM 8:27 PM
Waxing Crescent, 40% visible
Pressure 29.93 in
Visibility 10.0 miles
Clouds Mostly Cloudy 1900 ft
Overcast 2300 ft
Dew Point 65 °F
Humidity 87%
Rainfall 0.81 in
Snow Depth Not available.
UV 3 out of 12
Pollen 4.10 out of 12
Air Quality Not available.
Flu Activity Sporadic
METAR KIRK 241655Z AUTO 19012KT 10SM -RA BKN019 OVC023 21/18 A2994 RMK AO2 RAB09 SLP135 P0000 T02060183

More Conditions Fewer Conditions

Pressure 29.93 in
Visibility 10.0 miles
Clouds Mostly Cloudy 1900 ft
Overcast 2300 ft
Dew Point 65 °F
Humidity 87%
Rainfall 0.81 in
Snow Depth Not available.
UV 3 out of 12
Pollen 4.10 out of 12
Air Quality Not available.
Flu Activity Sporadic
METAR KIRK 241655Z AUTO 19012KT 10SM -RA BKN019 OVC023 21/18 A2994 RMK AO2 RAB09 SLP135 P0000 T02060183

More Conditions Fewer Conditions

10-Day Weather Forecast

Almanac

Astronomy

May. 24, 2015 Rise Set
Actual Time
Civil Twilight
Nautical Twilight
Astronomical Twilight
Moon
Length of Visible Light
Length of Day
Tomorrow will be .
, % of the Moon is Illuminated

Today's Extremes

State Highs State Lows

Community

WunderPhotos

Upload Photos

1,823,804 photos uploaded!

WunderBlogs® & News

Nearby

Air Quality

  Air Quality AQ Index Pollutant
Not available.

Snow Depth

Station Depth Elevation

Earthquake Activity

City Distance Mag. Time & Date
Minimum magnitude displayed is 2.5.

Coastal Water Temperatures

Place Temperature

Stations

Nearby Weather Stations

Station Location Temp. Windchill Dew Point Humidity Wind Precip. Elev Updated Type